sensor_id;sensor_type;location;lat;lon;timestamp;pressure;altitude;pressure_sealevel;temperature;humidity
64025;BME280;50266;57.446;26.936;2023-06-14T00:00:40;100002.34;;;11.48;100.0
64025;BME280;50266;57.446;26.936;2023-06-14T00:01:40;100007.05;;;11.49;100.0
64025;BME280;50266;57.446;26.936;2023-06-14T00:02:40;100007.62;;;11.49;100.0
64025;BME280;50266;57.446;26.936;2023-06-14T00:03:40;100005.58;;;11.57;100.0
64025;BME280;50266;57.446;26.936;2023-06-14T00:04:40;100001.42;;;11.55;100.0
64025;BME280;50266;57.446;26.936;2023-06-14T00:05:40;100001.16;;;11.58;100.0
64025;BME280;50266;57.446;26.936;2023-06-14T00:06:40;99997.41;;;11.67;100.0
64025;BME280;50266;57.446;26.936;2023-06-14T00:07:41;100000.8;;;11.4;100.0
64025;BME280;50266;57.446;26.936;2023-06-14T00:08:40;99999.25;;;11.48;100.0
64025;BME280;50266;57.446;26.936;2023-06-14T00:09:40;100001.86;;;11.59;100.0
64025;BME280;50266;57.446;26.936;2023-06-14T00:10:40;100004.09;;;11.43;100.0
64025;BME280;50266;57.446;26.936;2023-06-14T00:11:41;100000.34;;;11.09;100.0
64025;BME280;50266;57.446;26.936;2023-06-14T00:12:40;100002.84;;;11.41;100.0
64025;BME280;50266;57.446;26.936;2023-06-14T00:13:40;99998.38;;;11.84;100.0
64025;BME280;50266;57.446;26.936;2023-06-14T00:14:40;99998.05;;;11.69;100.0
64025;BME280;50266;57.446;26.936;2023-06-14T00:15:40;100000.86;;;11.59;100.0
64025;BME280;50266;57.446;26.936;2023-06-14T00:16:41;100006.62;;;11.4;100.0
64025;BME280;50266;57.446;26.936;2023-06-14T00:17:40;100000.66;;;11.69;100.0
64025;BME280;50266;57.446;26.936;2023-06-14T00:18:40;99995.91;;;11.63;100.0
64025;BME280;50266;57.446;26.936;2023-06-14T00:19:40;100000.16;;;11.42;100.0
64025;BME280;50266;57.446;26.936;2023-06-14T00:20:40;99999.3;;;11.65;100.0
64025;BME280;50266;57.446;26.936;2023-06-14T00:21:40;99996.22;;;11.5;100.0
64025;BME280;50266;57.446;26.936;2023-06-14T00:22:40;99997.22;;;11.61;100.0
64025;BME280;50266;57.446;26.936;2023-06-14T00:23:40;99996.92;;;11.68;100.0
64025;BME280;50266;57.446;26.936;2023-06-14T00:24:40;99995.58;;;11.67;100.0
64025;BME280;50266;57.446;26.936;2023-06-14T00:25:40;99995.7;;;11.59;100.0
64025;BME280;50266;57.446;26.936;2023-06-14T00:26:40;100000.23;;;11.63;100.0
64025;BME280;50266;57.446;26.936;2023-06-14T00:27:40;99995.78;;;11.65;100.0
64025;BME280;50266;57.446;26.936;2023-06-14T00:28:40;99997.02;;;11.65;100.0
64025;BME280;50266;57.446;26.936;2023-06-14T00:29:40;99999.64;;;11.6;100.0
64025;BME280;50266;57.446;26.936;2023-06-14T00:30:40;100002.69;;;11.61;100.0
64025;BME280;50266;57.446;26.936;2023-06-14T00:31:40;100000.84;;;11.41;100.0
64025;BME280;50266;57.446;26.936;2023-06-14T00:32:41;100002.06;;;11.3;100.0
64025;BME280;50266;57.446;26.936;2023-06-14T00:33:41;100002.31;;;11.09;100.0
64025;BME280;50266;57.446;26.936;2023-06-14T00:34:41;100002.27;;;11.11;100.0
64025;BME280;50266;57.446;26.936;2023-06-14T00:35:41;100007.3;;;11.21;100.0
64025;BME280;50266;57.446;26.936;2023-06-14T00:36:41;100002.0;;;11.06;100.0
64025;BME280;50266;57.446;26.936;2023-06-14T00:37:41;100002.89;;;11.14;100.0
64025;BME280;50266;57.446;26.936;2023-06-14T00:38:41;100005.17;;;11.11;100.0
64025;BME280;50266;57.446;26.936;2023-06-14T00:39:41;100008.35;;;11.22;100.0
64025;BME280;50266;57.446;26.936;2023-06-14T00:40:41;100004.14;;;11.17;100.0
64025;BME280;50266;57.446;26.936;2023-06-14T00:41:41;100006.05;;;11.08;100.0
64025;BME280;50266;57.446;26.936;2023-06-14T00:42:41;100006.62;;;11.12;100.0
64025;BME280;50266;57.446;26.936;2023-06-14T00:43:41;100010.77;;;11.16;100.0
64025;BME280;50266;57.446;26.936;2023-06-14T00:44:41;100008.27;;;11.08;100.0
64025;BME280;50266;57.446;26.936;2023-06-14T00:45:41;100008.39;;;11.09;100.0
64025;BME280;50266;57.446;26.936;2023-06-14T00:46:41;100010.52;;;11.15;100.0
64025;BME280;50266;57.446;26.936;2023-06-14T00:47:41;100007.05;;;11.01;100.0
64025;BME280;50266;57.446;26.936;2023-06-14T00:48:41;100007.45;;;10.93;100.0
64025;BME280;50266;57.446;26.936;2023-06-14T00:49:41;100008.48;;;10.97;100.0
64025;BME280;50266;57.446;26.936;2023-06-14T00:50:41;100006.59;;;10.75;100.0
64025;BME280;50266;57.446;26.936;2023-06-14T00:51:44;100007.88;;;10.54;100.0
64025;BME280;50266;57.446;26.936;2023-06-14T00:52:41;100005.62;;;10.61;100.0
64025;BME280;50266;57.446;26.936;2023-06-14T00:53:41;100009.48;;;10.97;100.0
64025;BME280;50266;57.446;26.936;2023-06-14T00:54:41;100005.1;;;10.81;100.0
64025;BME280;50266;57.446;26.936;2023-06-14T00:55:41;100006.99;;;10.53;100.0
64025;BME280;50266;57.446;26.936;2023-06-14T00:56:41;100009.28;;;10.51;100.0
64025;BME280;50266;57.446;26.936;2023-06-14T00:57:41;100005.67;;;10.55;100.0
64025;BME280;50266;57.446;26.936;2023-06-14T00:58:41;100004.09;;;10.33;100.0
64025;BME280;50266;57.446;26.936;2023-06-14T00:59:45;100003.34;;;10.3;100.0
64025;BME280;50266;57.446;26.936;2023-06-14T01:00:41;100005.92;;;10.29;100.0
64025;BME280;50266;57.446;26.936;2023-06-14T01:01:41;100003.09;;;10.16;100.0
64025;BME280;50266;57.446;26.936;2023-06-14T01:02:41;100000.02;;;10.1;100.0
64025;BME280;50266;57.446;26.936;2023-06-14T01:03:42;100005.12;;;10.04;100.0
64025;BME280;50266;57.446;26.936;2023-06-14T01:04:42;100006.59;;;10.01;100.0
64025;BME280;50266;57.446;26.936;2023-06-14T01:05:42;100003.33;;;10.05;100.0
64025;BME280;50266;57.446;26.936;2023-06-14T01:06:45;100005.16;;;10.08;100.0
64025;BME280;50266;57.446;26.936;2023-06-14T01:11:08;100006.69;;;9.83;100.0
64025;BME280;50266;57.446;26.936;2023-06-14T01:14:03;100007.26;;;9.83;100.0
64025;BME280;50266;57.446;26.936;2023-06-14T01:15:03;100008.82;;;9.86;100.0
64025;BME280;50266;57.446;26.936;2023-06-14T01:16:03;100006.3;;;9.86;100.0
64025;BME280;50266;57.446;26.936;2023-06-14T01:17:03;100012.12;;;9.9;100.0
64025;BME280;50266;57.446;26.936;2023-06-14T01:18:03;100005.47;;;9.86;100.0
64025;BME280;50266;57.446;26.936;2023-06-14T01:19:03;100008.25;;;9.86;100.0
64025;BME280;50266;57.446;26.936;2023-06-14T01:20:03;100005.88;;;9.88;100.0
64025;BME280;50266;57.446;26.936;2023-06-14T01:21:03;100007.7;;;9.88;100.0
64025;BME280;50266;57.446;26.936;2023-06-14T01:22:03;100005.61;;;9.85;100.0
64025;BME280;50266;57.446;26.936;2023-06-14T01:23:03;100010.77;;;9.84;100.0
64025;BME280;50266;57.446;26.936;2023-06-14T01:24:03;100009.62;;;9.79;100.0
64025;BME280;50266;57.446;26.936;2023-06-14T01:25:03;100013.58;;;9.75;100.0
64025;BME280;50266;57.446;26.936;2023-06-14T01:26:03;100012.95;;;9.81;100.0
64025;BME280;50266;57.446;26.936;2023-06-14T01:27:03;100011.61;;;9.79;100.0
64025;BME280;50266;57.446;26.936;2023-06-14T01:28:04;100013.44;;;9.79;100.0
64025;BME280;50266;57.446;26.936;2023-06-14T01:29:03;100015.33;;;9.79;100.0
64025;BME280;50266;57.446;26.936;2023-06-14T01:30:03;100010.98;;;9.8;100.0
64025;BME280;50266;57.446;26.936;2023-06-14T01:31:03;100010.08;;;9.77;100.0
64025;BME280;50266;57.446;26.936;2023-06-14T01:32:03;100013.2;;;9.7;100.0
64025;BME280;50266;57.446;26.936;2023-06-14T01:33:03;100012.5;;;9.68;100.0
64025;BME280;50266;57.446;26.936;2023-06-14T01:34:03;100014.08;;;9.65;100.0
64025;BME280;50266;57.446;26.936;2023-06-14T01:35:03;100016.23;;;9.64;100.0
64025;BME280;50266;57.446;26.936;2023-06-14T01:36:03;100018.23;;;9.65;100.0
64025;BME280;50266;57.446;26.936;2023-06-14T01:37:03;100021.89;;;9.61;100.0
64025;BME280;50266;57.446;26.936;2023-06-14T01:38:03;100018.23;;;9.61;100.0
64025;BME280;50266;57.446;26.936;2023-06-14T01:39:03;100017.28;;;9.63;100.0
64025;BME280;50266;57.446;26.936;2023-06-14T01:40:03;100025.11;;;9.57;100.0
64025;BME280;50266;57.446;26.936;2023-06-14T01:41:03;100025.69;;;9.62;100.0
64025;BME280;50266;57.446;26.936;2023-06-14T01:42:03;100028.68;;;9.51;100.0
64025;BME280;50266;57.446;26.936;2023-06-14T01:43:03;100022.65;;;9.47;100.0
64025;BME280;50266;57.446;26.936;2023-06-14T01:44:03;100025.74;;;9.46;100.0
64025;BME280;50266;57.446;26.936;2023-06-14T01:45:06;100028.81;;;9.43;100.0
64025;BME280;50266;57.446;26.936;2023-06-14T01:46:03;100024.28;;;9.42;100.0
64025;BME280;50266;57.446;26.936;2023-06-14T01:47:04;100026.02;;;9.48;100.0
64025;BME280;50266;57.446;26.936;2023-06-14T01:48:04;100024.74;;;9.5;100.0
64025;BME280;50266;57.446;26.936;2023-06-14T01:49:03;100026.03;;;9.61;100.0
64025;BME280;50266;57.446;26.936;2023-06-14T01:50:04;100023.16;;;9.57;100.0
64025;BME280;50266;57.446;26.936;2023-06-14T01:51:03;100023.41;;;9.58;100.0
64025;BME280;50266;57.446;26.936;2023-06-14T01:52:03;100022.23;;;9.53;100.0
64025;BME280;50266;57.446;26.936;2023-06-14T01:53:06;100021.55;;;9.62;100.0
64025;BME280;50266;57.446;26.936;2023-06-14T01:54:04;100019.31;;;9.73;100.0
64025;BME280;50266;57.446;26.936;2023-06-14T01:55:04;100020.95;;;9.72;100.0
64025;BME280;50266;57.446;26.936;2023-06-14T01:56:04;100020.08;;;9.73;100.0
64025;BME280;50266;57.446;26.936;2023-06-14T01:57:06;100018.61;;;9.8;100.0
64025;BME280;50266;57.446;26.936;2023-06-14T01:58:04;100022.96;;;9.56;100.0
64025;BME280;50266;57.446;26.936;2023-06-14T01:59:04;100026.3;;;9.4;100.0
64025;BME280;50266;57.446;26.936;2023-06-14T02:00:04;100021.8;;;9.3;100.0
64025;BME280;50266;57.446;26.936;2023-06-14T02:01:04;100024.49;;;9.34;100.0
64025;BME280;50266;57.446;26.936;2023-06-14T02:02:04;100027.95;;;9.35;100.0
64025;BME280;50266;57.446;26.936;2023-06-14T02:03:04;100033.03;;;9.61;100.0
64025;BME280;50266;57.446;26.936;2023-06-14T02:04:04;100026.73;;;9.8;100.0
64025;BME280;50266;57.446;26.936;2023-06-14T02:05:04;100025.77;;;9.83;100.0
64025;BME280;50266;57.446;26.936;2023-06-14T02:06:04;100022.88;;;9.84;100.0
64025;BME280;50266;57.446;26.936;2023-06-14T02:07:04;100027.33;;;9.64;100.0
64025;BME280;50266;57.446;26.936;2023-06-14T02:08:04;100027.92;;;9.51;100.0
64025;BME280;50266;57.446;26.936;2023-06-14T02:09:04;100027.81;;;9.47;100.0
64025;BME280;50266;57.446;26.936;2023-06-14T02:10:04;100027.62;;;9.47;100.0
64025;BME280;50266;57.446;26.936;2023-06-14T02:11:04;100027.0;;;9.68;100.0
64025;BME280;50266;57.446;26.936;2023-06-14T02:12:04;100028.52;;;9.96;100.0
64025;BME280;50266;57.446;26.936;2023-06-14T02:13:04;100030.94;;;10.03;100.0
64025;BME280;50266;57.446;26.936;2023-06-14T02:14:04;100028.67;;;10.01;100.0
64025;BME280;50266;57.446;26.936;2023-06-14T02:15:04;100023.98;;;10.22;100.0
64025;BME280;50266;57.446;26.936;2023-06-14T02:16:04;100017.84;;;10.31;100.0
64025;BME280;50266;57.446;26.936;2023-06-14T02:17:04;100021.05;;;10.35;100.0
64025;BME280;50266;57.446;26.936;2023-06-14T02:18:04;100016.36;;;10.33;100.0
64025;BME280;50266;57.446;26.936;2023-06-14T02:19:04;100018.1;;;10.35;100.0
64025;BME280;50266;57.446;26.936;2023-06-14T02:20:04;100017.64;;;10.42;100.0
64025;BME280;50266;57.446;26.936;2023-06-14T02:21:04;100014.66;;;10.57;100.0
64025;BME280;50266;57.446;26.936;2023-06-14T02:22:04;100013.73;;;10.6;100.0
64025;BME280;50266;57.446;26.936;2023-06-14T02:23:04;100013.91;;;10.5;100.0
64025;BME280;50266;57.446;26.936;2023-06-14T02:24:04;100012.68;;;10.62;100.0
64025;BME280;50266;57.446;26.936;2023-06-14T02:25:04;100007.72;;;10.63;100.0
64025;BME280;50266;57.446;26.936;2023-06-14T02:26:04;100011.93;;;10.75;100.0
64025;BME280;50266;57.446;26.936;2023-06-14T02:27:04;100010.05;;;10.7;100.0
64025;BME280;50266;57.446;26.936;2023-06-14T02:28:04;100012.12;;;10.66;100.0
64025;BME280;50266;57.446;26.936;2023-06-14T02:29:05;100011.55;;;10.6;100.0
64025;BME280;50266;57.446;26.936;2023-06-14T02:30:05;100014.95;;;10.37;100.0
64025;BME280;50266;57.446;26.936;2023-06-14T02:31:04;100013.63;;;10.33;100.0
64025;BME280;50266;57.446;26.936;2023-06-14T02:32:05;100011.58;;;10.65;100.0
64025;BME280;50266;57.446;26.936;2023-06-14T02:33:04;100008.61;;;10.86;100.0
64025;BME280;50266;57.446;26.936;2023-06-14T02:34:04;100007.77;;;10.96;100.0
64025;BME280;50266;57.446;26.936;2023-06-14T02:35:05;100006.05;;;10.86;100.0
64025;BME280;50266;57.446;26.936;2023-06-14T02:36:05;100010.92;;;10.62;100.0
64025;BME280;50266;57.446;26.936;2023-06-14T02:37:04;100011.7;;;10.46;100.0
64025;BME280;50266;57.446;26.936;2023-06-14T02:38:04;100013.32;;;10.42;100.0
64025;BME280;50266;57.446;26.936;2023-06-14T02:39:04;100013.57;;;10.3;100.0
64025;BME280;50266;57.446;26.936;2023-06-14T02:40:05;100015.34;;;10.26;100.0
64025;BME280;50266;57.446;26.936;2023-06-14T02:41:05;100015.7;;;10.3;100.0
64025;BME280;50266;57.446;26.936;2023-06-14T02:42:05;100017.33;;;10.41;100.0
64025;BME280;50266;57.446;26.936;2023-06-14T02:43:04;100020.38;;;10.44;100.0
64025;BME280;50266;57.446;26.936;2023-06-14T02:44:05;100017.55;;;10.44;100.0
64025;BME280;50266;57.446;26.936;2023-06-14T02:45:05;100018.47;;;10.47;100.0
64025;BME280;50266;57.446;26.936;2023-06-14T02:46:04;100018.41;;;10.52;100.0
64025;BME280;50266;57.446;26.936;2023-06-14T02:47:05;100022.27;;;10.56;100.0
64025;BME280;50266;57.446;26.936;2023-06-14T02:48:04;100021.77;;;10.61;100.0
64025;BME280;50266;57.446;26.936;2023-06-14T02:49:04;100023.02;;;10.74;100.0
64025;BME280;50266;57.446;26.936;2023-06-14T02:50:05;100023.22;;;10.81;100.0
64025;BME280;50266;57.446;26.936;2023-06-14T02:51:04;100022.88;;;10.84;100.0
64025;BME280;50266;57.446;26.936;2023-06-14T02:52:05;100022.56;;;10.82;100.0
64025;BME280;50266;57.446;26.936;2023-06-14T02:53:04;100026.77;;;10.88;100.0
64025;BME280;50266;57.446;26.936;2023-06-14T02:54:05;100023.71;;;10.85;100.0
64025;BME280;50266;57.446;26.936;2023-06-14T02:55:05;100024.1;;;11.04;100.0
64025;BME280;50266;57.446;26.936;2023-06-14T02:56:05;100026.62;;;11.14;100.0
64025;BME280;50266;57.446;26.936;2023-06-14T02:57:05;100025.95;;;11.22;100.0
64025;BME280;50266;57.446;26.936;2023-06-14T02:58:05;100025.62;;;11.25;100.0
64025;BME280;50266;57.446;26.936;2023-06-14T02:59:05;100030.92;;;11.36;100.0
64025;BME280;50266;57.446;26.936;2023-06-14T03:00:05;100030.8;;;11.36;100.0
64025;BME280;50266;57.446;26.936;2023-06-14T03:01:05;100027.61;;;11.33;100.0
64025;BME280;50266;57.446;26.936;2023-06-14T03:02:05;100029.74;;;11.29;100.0
64025;BME280;50266;57.446;26.936;2023-06-14T03:03:05;100031.54;;;11.25;100.0
64025;BME280;50266;57.446;26.936;2023-06-14T03:04:05;100036.12;;;11.26;100.0
64025;BME280;50266;57.446;26.936;2023-06-14T03:05:05;100031.08;;;11.31;100.0
64025;BME280;50266;57.446;26.936;2023-06-14T03:06:05;100032.27;;;11.46;100.0
64025;BME280;50266;57.446;26.936;2023-06-14T03:07:05;100033.87;;;11.64;100.0
64025;BME280;50266;57.446;26.936;2023-06-14T03:08:05;100034.59;;;11.67;100.0
64025;BME280;50266;57.446;26.936;2023-06-14T03:09:05;100032.83;;;11.86;100.0
64025;BME280;50266;57.446;26.936;2023-06-14T03:10:05;100030.64;;;11.97;100.0
64025;BME280;50266;57.446;26.936;2023-06-14T03:11:05;100027.86;;;11.98;100.0
64025;BME280;50266;57.446;26.936;2023-06-14T03:12:05;100023.41;;;12.12;100.0
64025;BME280;50266;57.446;26.936;2023-06-14T03:13:05;100030.8;;;12.18;100.0
64025;BME280;50266;57.446;26.936;2023-06-14T03:14:05;100025.83;;;12.23;100.0
64025;BME280;50266;57.446;26.936;2023-06-14T03:15:05;100028.42;;;12.23;100.0
64025;BME280;50266;57.446;26.936;2023-06-14T03:16:05;100031.19;;;12.28;100.0
64025;BME280;50266;57.446;26.936;2023-06-14T03:17:05;100030.48;;;12.29;100.0
64025;BME280;50266;57.446;26.936;2023-06-14T03:18:05;100029.44;;;12.34;100.0
64025;BME280;50266;57.446;26.936;2023-06-14T03:19:05;100028.78;;;12.39;100.0
64025;BME280;50266;57.446;26.936;2023-06-14T03:20:06;100032.8;;;12.34;100.0
64025;BME280;50266;57.446;26.936;2023-06-14T03:21:05;100032.23;;;12.4;100.0
64025;BME280;50266;57.446;26.936;2023-06-14T03:22:05;100036.51;;;12.71;100.0
64025;BME280;50266;57.446;26.936;2023-06-14T03:23:05;100032.07;;;12.86;100.0
64025;BME280;50266;57.446;26.936;2023-06-14T03:24:05;100031.7;;;13.01;100.0
64025;BME280;50266;57.446;26.936;2023-06-14T03:25:05;100034.94;;;13.12;100.0
64025;BME280;50266;57.446;26.936;2023-06-14T03:26:05;100029.89;;;13.15;100.0
64025;BME280;50266;57.446;26.936;2023-06-14T03:27:05;100036.61;;;13.21;100.0
64025;BME280;50266;57.446;26.936;2023-06-14T03:28:05;100036.29;;;13.3;100.0
64025;BME280;50266;57.446;26.936;2023-06-14T03:29:05;100035.06;;;13.43;100.0
64025;BME280;50266;57.446;26.936;2023-06-14T03:30:06;100035.59;;;13.44;100.0
64025;BME280;50266;57.446;26.936;2023-06-14T03:31:05;100036.11;;;13.5;100.0
64025;BME280;50266;57.446;26.936;2023-06-14T03:32:06;100038.0;;;13.52;100.0
64025;BME280;50266;57.446;26.936;2023-06-14T03:33:05;100036.5;;;13.55;100.0
64025;BME280;50266;57.446;26.936;2023-06-14T03:34:05;100035.48;;;13.58;100.0
64025;BME280;50266;57.446;26.936;2023-06-14T03:35:06;100038.74;;;13.63;100.0
64025;BME280;50266;57.446;26.936;2023-06-14T03:36:06;100038.84;;;13.63;100.0
64025;BME280;50266;57.446;26.936;2023-06-14T03:37:05;100035.47;;;13.75;100.0
64025;BME280;50266;57.446;26.936;2023-06-14T03:38:05;100036.19;;;13.9;100.0
64025;BME280;50266;57.446;26.936;2023-06-14T03:39:05;100034.27;;;13.9;100.0
64025;BME280;50266;57.446;26.936;2023-06-14T03:40:06;100033.16;;;13.94;100.0
64025;BME280;50266;57.446;26.936;2023-06-14T03:41:06;100032.96;;;13.9;100.0
64025;BME280;50266;57.446;26.936;2023-06-14T03:42:06;100029.34;;;13.93;100.0
64025;BME280;50266;57.446;26.936;2023-06-14T03:43:06;100033.83;;;13.91;100.0
64025;BME280;50266;57.446;26.936;2023-06-14T03:44:05;100036.11;;;13.95;100.0
64025;BME280;50266;57.446;26.936;2023-06-14T03:45:08;100035.58;;;13.89;100.0
64025;BME280;50266;57.446;26.936;2023-06-14T03:46:05;100035.13;;;13.84;100.0
64025;BME280;50266;57.446;26.936;2023-06-14T03:47:06;100040.83;;;13.85;100.0
64025;BME280;50266;57.446;26.936;2023-06-14T03:48:05;100041.69;;;13.72;100.0
64025;BME280;50266;57.446;26.936;2023-06-14T03:49:05;100041.61;;;13.68;100.0
64025;BME280;50266;57.446;26.936;2023-06-14T03:50:06;100043.67;;;13.69;100.0
64025;BME280;50266;57.446;26.936;2023-06-14T03:51:05;100041.22;;;13.66;100.0
64025;BME280;50266;57.446;26.936;2023-06-14T03:52:06;100038.16;;;13.66;100.0
64025;BME280;50266;57.446;26.936;2023-06-14T03:53:06;100041.59;;;13.65;100.0
64025;BME280;50266;57.446;26.936;2023-06-14T03:54:06;100038.88;;;13.64;100.0
64025;BME280;50266;57.446;26.936;2023-06-14T03:55:07;100036.7;;;13.68;100.0
64025;BME280;50266;57.446;26.936;2023-06-14T03:56:07;100033.48;;;13.71;100.0
64025;BME280;50266;57.446;26.936;2023-06-14T03:57:07;100029.94;;;13.75;100.0
64025;BME280;50266;57.446;26.936;2023-06-14T03:58:07;100032.94;;;13.81;100.0
64025;BME280;50266;57.446;26.936;2023-06-14T03:59:07;100031.78;;;13.88;100.0
64025;BME280;50266;57.446;26.936;2023-06-14T04:00:10;100029.83;;;13.91;100.0
64025;BME280;50266;57.446;26.936;2023-06-14T04:01:07;100029.59;;;13.97;100.0
64025;BME280;50266;57.446;26.936;2023-06-14T04:02:07;100026.2;;;14.07;100.0
64025;BME280;50266;57.446;26.936;2023-06-14T04:03:07;100027.14;;;14.05;100.0
64025;BME280;50266;57.446;26.936;2023-06-14T04:04:07;100026.29;;;14.14;100.0
64025;BME280;50266;57.446;26.936;2023-06-14T04:05:07;100024.91;;;14.22;100.0
64025;BME280;50266;57.446;26.936;2023-06-14T04:06:07;100026.16;;;14.34;100.0
64025;BME280;50266;57.446;26.936;2023-06-14T04:07:07;100024.02;;;14.4;100.0
64025;BME280;50266;57.446;26.936;2023-06-14T04:08:08;100022.92;;;14.41;100.0
64025;BME280;50266;57.446;26.936;2023-06-14T04:09:07;100023.62;;;14.53;100.0
64025;BME280;50266;57.446;26.936;2023-06-14T04:10:08;100020.19;;;14.51;100.0
64025;BME280;50266;57.446;26.936;2023-06-14T04:11:07;100019.33;;;14.6;100.0
64025;BME280;50266;57.446;26.936;2023-06-14T04:12:08;100020.94;;;14.68;100.0
64025;BME280;50266;57.446;26.936;2023-06-14T04:13:07;100017.77;;;14.76;100.0
64025;BME280;50266;57.446;26.936;2023-06-14T04:14:07;100018.42;;;14.85;100.0
64025;BME280;50266;57.446;26.936;2023-06-14T04:15:08;100019.3;;;14.97;100.0
64025;BME280;50266;57.446;26.936;2023-06-14T04:16:11;100021.8;;;15.14;100.0
64025;BME280;50266;57.446;26.936;2023-06-14T04:17:12;100021.47;;;15.17;100.0
64025;BME280;50266;57.446;26.936;2023-06-14T04:18:12;100023.25;;;15.26;100.0
64025;BME280;50266;57.446;26.936;2023-06-14T04:19:12;100024.11;;;15.32;100.0
64025;BME280;50266;57.446;26.936;2023-06-14T04:20:12;100020.86;;;15.41;100.0
64025;BME280;50266;57.446;26.936;2023-06-14T04:21:12;100025.97;;;15.46;100.0
64025;BME280;50266;57.446;26.936;2023-06-14T04:22:12;100024.28;;;15.53;100.0
64025;BME280;50266;57.446;26.936;2023-06-14T04:23:15;100029.16;;;15.59;100.0
64025;BME280;50266;57.446;26.936;2023-06-14T04:24:12;100021.59;;;15.66;100.0
64025;BME280;50266;57.446;26.936;2023-06-14T04:25:12;100021.92;;;15.74;100.0
64025;BME280;50266;57.446;26.936;2023-06-14T04:26:12;100028.3;;;15.77;100.0
64025;BME280;50266;57.446;26.936;2023-06-14T04:27:12;100026.39;;;15.9;100.0
64025;BME280;50266;57.446;26.936;2023-06-14T04:28:12;100026.21;;;15.95;100.0
64025;BME280;50266;57.446;26.936;2023-06-14T04:29:12;100029.94;;;16.03;100.0
64025;BME280;50266;57.446;26.936;2023-06-14T04:30:12;100024.78;;;16.04;100.0
64025;BME280;50266;57.446;26.936;2023-06-14T04:31:12;100024.69;;;16.04;100.0
64025;BME280;50266;57.446;26.936;2023-06-14T04:32:12;100029.36;;;16.09;100.0
64025;BME280;50266;57.446;26.936;2023-06-14T04:33:12;100029.47;;;16.15;100.0
64025;BME280;50266;57.446;26.936;2023-06-14T04:34:12;100028.77;;;16.2;100.0
64025;BME280;50266;57.446;26.936;2023-06-14T04:35:12;100029.91;;;16.1;100.0
64025;BME280;50266;57.446;26.936;2023-06-14T04:36:12;100028.98;;;16.1;100.0
64025;BME280;50266;57.446;26.936;2023-06-14T04:37:12;100029.34;;;16.19;100.0
64025;BME280;50266;57.446;26.936;2023-06-14T04:38:12;100030.91;;;16.25;100.0
64025;BME280;50266;57.446;26.936;2023-06-14T04:39:12;100032.36;;;16.42;100.0
64025;BME280;50266;57.446;26.936;2023-06-14T04:40:12;100028.96;;;16.52;100.0
64025;BME280;50266;57.446;26.936;2023-06-14T04:41:12;100028.94;;;16.57;100.0
64025;BME280;50266;57.446;26.936;2023-06-14T04:42:12;100022.39;;;16.72;100.0
64025;BME280;50266;57.446;26.936;2023-06-14T04:43:12;100027.27;;;16.82;100.0
64025;BME280;50266;57.446;26.936;2023-06-14T04:44:12;100028.59;;;16.89;100.0
64025;BME280;50266;57.446;26.936;2023-06-14T04:45:12;100025.23;;;16.95;100.0
64025;BME280;50266;57.446;26.936;2023-06-14T04:46:12;100030.53;;;17.07;100.0
64025;BME280;50266;57.446;26.936;2023-06-14T04:47:12;100025.31;;;17.16;100.0
64025;BME280;50266;57.446;26.936;2023-06-14T04:48:12;100025.23;;;17.16;100.0
64025;BME280;50266;57.446;26.936;2023-06-14T04:49:12;100025.8;;;17.26;100.0
64025;BME280;50266;57.446;26.936;2023-06-14T04:50:12;100026.2;;;17.32;100.0
64025;BME280;50266;57.446;26.936;2023-06-14T04:51:12;100023.77;;;17.32;100.0
64025;BME280;50266;57.446;26.936;2023-06-14T04:52:12;100027.95;;;17.32;100.0
64025;BME280;50266;57.446;26.936;2023-06-14T04:53:12;100027.58;;;17.37;100.0
64025;BME280;50266;57.446;26.936;2023-06-14T04:54:12;100024.14;;;17.27;100.0
64025;BME280;50266;57.446;26.936;2023-06-14T04:55:12;100021.14;;;17.28;100.0
64025;BME280;50266;57.446;26.936;2023-06-14T04:56:12;100022.02;;;17.26;100.0
64025;BME280;50266;57.446;26.936;2023-06-14T04:57:12;100016.88;;;17.29;100.0
64025;BME280;50266;57.446;26.936;2023-06-14T04:58:12;100020.86;;;17.3;100.0
64025;BME280;50266;57.446;26.936;2023-06-14T04:59:12;100026.0;;;17.41;100.0
64025;BME280;50266;57.446;26.936;2023-06-14T05:00:12;100024.81;;;17.44;100.0
64025;BME280;50266;57.446;26.936;2023-06-14T05:01:12;100023.59;;;17.47;100.0
64025;BME280;50266;57.446;26.936;2023-06-14T05:02:12;100020.0;;;17.43;100.0
64025;BME280;50266;57.446;26.936;2023-06-14T05:03:12;100024.58;;;17.38;100.0
64025;BME280;50266;57.446;26.936;2023-06-14T05:04:12;100023.28;;;17.4;100.0
64025;BME280;50266;57.446;26.936;2023-06-14T05:05:12;100021.56;;;17.45;100.0
64025;BME280;50266;57.446;26.936;2023-06-14T05:06:13;100020.98;;;17.54;100.0
64025;BME280;50266;57.446;26.936;2023-06-14T05:07:12;100021.98;;;17.82;100.0
64025;BME280;50266;57.446;26.936;2023-06-14T05:08:12;100021.97;;;17.74;100.0
64025;BME280;50266;57.446;26.936;2023-06-14T05:09:13;100018.03;;;17.79;100.0
64025;BME280;50266;57.446;26.936;2023-06-14T05:10:12;100022.5;;;17.79;100.0
64025;BME280;50266;57.446;26.936;2023-06-14T05:11:12;100024.17;;;17.88;100.0
64025;BME280;50266;57.446;26.936;2023-06-14T05:12:12;100026.81;;;17.84;100.0
64025;BME280;50266;57.446;26.936;2023-06-14T05:13:12;100024.09;;;17.88;100.0
64025;BME280;50266;57.446;26.936;2023-06-14T05:14:13;100020.55;;;17.91;100.0
64025;BME280;50266;57.446;26.936;2023-06-14T05:15:12;100020.16;;;18.0;100.0
64025;BME280;50266;57.446;26.936;2023-06-14T05:16:13;100022.68;;;18.04;100.0
64025;BME280;50266;57.446;26.936;2023-06-14T05:17:12;100028.49;;;18.18;100.0